Hlavní strana
METAR-TAF:

METAR-TAF

Letiště :

Bejrút, Libanon

zeměpisná šířka: 33-49N, zeměpisná délka: 035-29E, výška: 29 m

Aktuální stav počasí

Zpráva byla vytvořena před 43 minutami, v 02:00 UTC
Jižní vítr 4 kt, proměnlivý mezi jihovýchodním a jihozápadním
Teplota 26°C
Vlhkost vzduchu 65%
Tlak 1006 hPa
Viditelnost: 8000 m
Jasno

METAR: OLBA 180200Z 17004KT 140V220 8000 SKC 26/19 Q1006 NOSIG

Čas: 05:43 (02:43 UTC)

Předpověď počasí

Zpráva byla vytvořena před 4 hodinami a 43 minutami, v 22:00 UTC
Předpověď platná od 18 v 00 UTC do 19 v 06 UTC
vítr z různých směrů 3 kt
Viditelnost: 8000 m
Skoro jasno ve výšce 2600 ft
Změna
od 18 v 06 UTC do 18 v 08 UTC
Jihozápadní vítr 16 kt
Dočasný
od 18 v 06 UTC do 18 v 12 UTC
Viditelnost: 5000 m
Polojasno ve výšce 2800 ft
kouřmo
Změna
od 18 v 18 UTC do 18 v 20 UTC
Jihozápadní vítr 6 kt

TAF: OLBA 172200Z 1800/1906 VRB03KT 8000 FEW026 BECMG 1806/1808 23016KT TEMPO 1806/1812 5000 BR SCT028 BECMG 1818/1820 22006KT

Stav a předpovědi počasí z více než 4 000 letišť (zprávy METAR a TAF).

Červené a žluté tečky na mapě představují dostupné meteorologické stanice.

Když kurzor umístíte na tečku, zobrazí se název stanice.

Pak kliknutím zobrazíte stav a předpověď počasí.

Chcete-li změnit mapu, kliknutím na zelené tlačítko se znaménkem +mapu přiblížíte, kliknutím na zelené tlačítko se znaménkem – mapu oddálíte a kliknutím na zelené šipky přejdete na sousední mapy.


METAR-TAF: